Terminal Aerodrome Forecast
Issued by NWS

Home | Current Version | Previous Version | Text Only | Print | Product List | Glossary On
Versions: 1 2 3 4 5 6 7 8 9 10 11 12 13 14 15 16 17
000
FTUS41 KCAR 232038 AAA
TAFBHB
TAF AMD
KBHB 232038Z 2321/2418 21007KT P6SM SCT006 BKN015
     FM232300 19007KT P6SM BKN006
     FM240100 19005KT 1SM BR OVC003
     FM240300 19005KT 1/2SM -DZ FG OVC002
     FM241500 18011G19KT P6SM OVC005=

USA.gov is the U.S. government's official web portal to all federal, state and local government web resources and services.